Time;durP1;ratioP1;P1;durP2;ratioP2;P2;SDS_P1;SDS_P2;PMS_P1;PMS_P2;Temp;Humidity;BMP_temperature;BMP_pressure;BME280_temperature;BME280_humidity;BME280_pressure;Samples;Min_cycle;Max_cycle;Signal;HPM_P1;HPM_P2
2022/02/03 00:02:15;;;;;;;20.17;14.58;;;;;;;2.16;67.03;98301.98;1741641;81;21757;-40
2022/02/03 00:04:33;;;;;;;25.30;15.10;;;;;;;2.15;67.12;98305.75;1724380;82;21047;-40
2022/02/03 00:07:03;;;;;;;25.52;15.78;;;;;;;2.12;67.22;98301.08;1752041;81;22072;-39
2022/02/03 00:09:59;;;;;;;26.73;14.65;;;;;;;2.11;67.38;98306.74;1756543;81;21508;-40
2022/02/03 00:23:19;;;;;;;22.90;14.20;;;;;;;2.07;67.97;98302.63;1766600;80;21084;-40
2022/02/03 00:25:30;;;;;;;26.37;14.83;;;;;;;2.06;68.15;98298.38;1747534;80;21088;-40
2022/02/03 00:28:17;;;;;;;24.98;15.28;;;;;;;2.06;68.31;98293.03;1750820;81;21152;-39
2022/02/03 00:33:17;;;;;;;27.22;15.20;;;;;;;2.09;68.51;98300.93;1715310;81;21084;-40
2022/02/03 00:49:39;;;;;;;27.45;15.18;;;;;;;2.09;68.74;98303.61;1756565;81;20938;-39
2022/02/03 00:52:00;;;;;;;27.00;15.05;;;;;;;2.10;68.74;98301.16;1750958;81;21048;-39
2022/02/03 00:54:30;;;;;;;25.08;14.58;;;;;;;2.11;68.75;98299.51;1756584;81;21835;-39
2022/02/03 00:57:02;;;;;;;24.02;14.10;;;;;;;2.10;68.69;98304.62;1756535;81;20953;-39
2022/02/03 00:59:58;;;;;;;22.77;14.23;;;;;;;2.10;68.71;98308.63;1756494;81;21504;-39
2022/02/03 01:02:25;;;;;;;24.67;14.55;;;;;;;2.11;68.72;98307.53;1756455;81;20998;-39
2022/02/03 01:04:52;;;;;;;20.45;14.05;;;;;;;2.11;68.78;98307.53;1756711;81;21020;-39
2022/02/03 01:07:20;;;;;;;25.70;15.03;;;;;;;2.13;68.79;98306.63;1756589;81;21143;-39
2022/02/03 01:10:00;;;;;;;23.80;14.15;;;;;;;2.14;68.83;98304.19;1756582;81;20973;-39
2022/02/03 01:45:02;;;;;;;23.80;14.40;;;;;;;2.15;69.69;98312.99;1756726;81;21447;-39
2022/02/03 01:47:28;;;;;;;22.45;14.87;;;;;;;2.14;69.70;98308.75;1751950;81;21107;-40
2022/02/03 01:52:32;;;;;;;20.50;13.25;;;;;;;2.16;69.86;98314.56;1741076;81;21340;-39
2022/02/03 01:55:00;;;;;;;24.87;14.10;;;;;;;2.18;69.92;98315.78;1756681;81;21092;-39
2022/02/03 01:57:44;;;;;;;26.48;14.18;;;;;;;2.21;69.88;98310.89;1756944;81;21017;-39
2022/02/03 02:00:14;;;;;;;23.75;13.62;;;;;;;2.24;69.92;98315.58;1756211;81;21827;-39
2022/02/03 02:03:08;;;;;;;22.40;13.55;;;;;;;2.27;69.89;98308.25;1758590;80;21012;-39
2022/02/03 02:06:09;;;;;;;22.80;13.58;;;;;;;2.29;69.93;98312.70;1750962;81;20972;-39
2022/02/03 02:08:46;;;;;;;24.85;14.58;;;;;;;2.30;69.94;98312.92;1715137;82;20961;-39
2022/02/03 02:11:51;;;;;;;21.82;14.33;;;;;;;2.30;70.02;98308.91;1687447;85;21507;-39
2022/02/03 02:36:54;;;;;;;22.10;14.28;;;;;;;2.28;70.04;98309.79;1692162;84;21361;-39
2022/02/03 02:39:48;;;;;;;22.87;13.75;;;;;;;2.31;70.23;98342.58;1726265;82;21105;-39
2022/02/03 02:45:10;;;;;;;21.40;14.30;;;;;;;2.28;70.37;98341.88;1720529;83;21033;-39
2022/02/03 02:47:51;;;;;;;22.35;13.75;;;;;;;2.25;70.50;98327.84;1719028;83;21033;-39
2022/02/03 02:50:32;;;;;;;25.12;14.05;;;;;;;2.26;70.54;98329.41;1707747;84;21543;-39
2022/02/03 02:52:56;;;;;;;25.37;13.95;;;;;;;2.27;70.60;98333.66;1704836;84;21034;-39
2022/02/03 02:55:54;;;;;;;21.02;13.45;;;;;;;2.32;70.57;98330.77;1703705;84;21160;-39
2022/02/03 02:58:34;;;;;;;23.87;13.65;;;;;;;2.36;70.46;98343.70;1705949;84;21024;-39
2022/02/03 03:04:08;;;;;;;21.23;13.45;;;;;;;2.38;70.41;98333.44;1679286;84;21118;-39
2022/02/03 03:34:21;;;;;;;20.35;13.53;;;;;;;2.43;70.20;98353.30;1699963;82;21042;-39
2022/02/03 03:36:39;;;;;;;23.25;13.58;;;;;;;2.38;70.39;98358.30;1687119;84;21172;-39
2022/02/03 03:39:05;;;;;;;18.62;13.78;;;;;;;2.36;70.52;98358.42;1707788;84;21030;-39
2022/02/03 03:41:34;;;;;;;21.82;13.72;;;;;;;2.35;70.62;98360.86;1707532;84;21025;-39
2022/02/03 03:44:05;;;;;;;18.75;13.50;;;;;;;2.32;70.68;98370.34;1707991;84;21057;-39
2022/02/03 03:46:36;;;;;;;19.67;13.78;;;;;;;2.33;70.81;98379.91;1707572;84;21057;-39
2022/02/03 03:49:25;;;;;;;24.00;14.65;;;;;;;2.33;70.83;98379.11;1707547;84;21111;-39
2022/02/03 03:52:00;;;;;;;22.67;14.53;;;;;;;2.31;70.84;98374.12;1707536;84;21670;-39
2022/02/03 03:54:37;;;;;;;21.77;14.18;;;;;;;2.27;70.90;98369.75;1707768;84;21029;-39
2022/02/03 04:39:56;;;;;;;18.92;11.30;;;;;;;2.36;71.35;98414.58;1720423;83;21044;-39
2022/02/03 04:54:56;;;;;;;17.27;12.30;;;;;;;2.15;71.71;98415.92;1714994;83;20986;-39
2022/02/03 05:00:39;;;;;;;17.30;11.78;;;;;;;2.13;71.96;98424.84;1709730;83;21141;-39
2022/02/03 05:09:25;;;;;;;17.20;11.40;;;;;;;2.15;71.93;98438.10;1712429;83;21697;-39
2022/02/03 05:22:49;;;;;;;14.13;9.78;;;;;;;2.14;72.25;98465.94;1678633;85;21284;-39
2022/02/03 05:45:36;;;;;;;11.48;7.80;;;;;;;2.23;72.94;98503.31;1707131;84;21130;-39
2022/02/03 06:14:38;;;;;;;11.28;8.65;;;;;;;2.15;73.11;98530.34;1788193;80;21023;-38
2022/02/03 06:17:15;;;;;;;10.15;8.45;;;;;;;2.16;73.23;98527.12;1787275;80;21468;-38
2022/02/03 06:22:42;;;;;;;13.48;9.93;;;;;;;2.15;73.29;98525.55;1788529;80;21781;-39
2022/02/03 06:27:26;;;;;;;12.13;9.15;;;;;;;2.12;73.61;98532.34;1788460;80;21522;-39
2022/02/03 06:29:55;;;;;;;11.37;8.47;;;;;;;2.16;73.67;98541.83;1788234;80;21515;-39
2022/02/03 06:32:20;;;;;;;10.28;8.65;;;;;;;2.16;73.70;98538.60;1788244;80;21029;-39
2022/02/03 06:34:46;;;;;;;13.15;9.03;;;;;;;2.16;73.84;98539.94;1784727;80;21112;-39
2022/02/03 06:37:13;;;;;;;11.83;9.15;;;;;;;2.16;73.98;98550.64;1784651;80;21519;-39
2022/02/03 06:39:40;;;;;;;12.90;9.55;;;;;;;2.17;74.20;98549.53;1761882;80;20972;-39
2022/02/03 06:42:09;;;;;;;12.58;9.95;;;;;;;2.19;74.27;98550.53;1756886;81;21092;-39
2022/02/03 06:44:43;;;;;;;14.38;10.55;;;;;;;2.21;74.35;98560.91;1756886;81;21542;-39
2022/02/03 06:47:21;;;;;;;12.70;9.90;;;;;;;2.21;74.55;98562.25;1756469;81;21801;-39
2022/02/03 06:55:14;;;;;;;;;;;;;;;2.23;74.75;98576.84;1759487;81;21467;-39
2022/02/03 06:57:56;;;;;;;11.85;9.40;;;;;;;2.25;74.65;98584.56;1777547;80;20174;-39
2022/02/03 07:00:23;;;;;;;12.45;9.50;;;;;;;2.21;74.89;98580.97;1787117;80;21103;-39
2022/02/03 07:02:50;;;;;;;12.15;9.45;;;;;;;2.29;74.56;98582.80;1783109;80;20965;-39
2022/02/03 07:05:15;;;;;;;11.38;9.03;;;;;;;2.34;74.44;98579.94;1774194;80;20938;-39
2022/02/03 07:07:42;;;;;;;11.70;9.45;;;;;;;2.37;74.26;98584.66;1774595;80;21068;-39
2022/02/03 07:10:10;;;;;;;12.20;9.13;;;;;;;2.40;74.15;98589.34;1774663;80;21536;-39
2022/02/03 07:12:38;;;;;;;11.40;9.35;;;;;;;2.37;73.89;98592.68;1774553;80;22018;-39
2022/02/03 07:15:08;;;;;;;11.10;8.20;;;;;;;2.39;73.98;98590.45;1774031;80;20980;-39
2022/02/03 07:17:35;;;;;;;8.47;5.90;;;;;;;2.41;73.69;98592.27;1774179;80;21021;-39
2022/02/03 07:20:06;;;;;;;6.03;5.12;;;;;;;2.41;73.32;98599.73;1773864;80;20986;-39
2022/02/03 07:22:34;;;;;;;5.75;4.72;;;;;;;2.41;73.15;98605.63;1771821;80;21026;-39
2022/02/03 07:25:02;;;;;;;4.78;4.33;;;;;;;2.43;73.03;98614.10;1767366;81;21128;-39
2022/02/03 07:27:29;;;;;;;5.12;4.40;;;;;;;2.43;72.87;98618.12;1766391;81;21552;-39
2022/02/03 07:29:56;;;;;;;4.83;4.33;;;;;;;2.43;72.91;98620.79;1743369;82;21503;-39
2022/02/03 07:32:22;;;;;;;5.90;4.62;;;;;;;2.43;73.02;98630.16;1743175;82;21007;-39
2022/02/03 07:34:51;;;;;;;5.17;4.67;;;;;;;2.43;73.02;98629.60;1771771;80;21051;-39
2022/02/03 07:37:18;;;;;;;4.72;4.20;;;;;;;2.44;72.93;98625.83;1773913;80;21157;-39
2022/02/03 07:39:46;;;;;;;4.55;3.70;;;;;;;2.46;72.92;98632.98;1773749;80;20944;-39
2022/02/03 07:42:13;;;;;;;4.80;4.17;;;;;;;2.43;72.40;98638.97;1774006;80;21049;-39
2022/02/03 07:44:41;;;;;;;4.83;3.50;;;;;;;2.41;72.39;98637.73;1773816;80;21063;-39
2022/02/03 07:47:07;;;;;;;4.55;3.80;;;;;;;2.39;72.22;98646.07;1773956;80;21010;-39
2022/02/03 07:49:34;;;;;;;5.30;4.42;;;;;;;2.36;72.26;98641.92;1774001;80;21181;-39
2022/02/03 07:52:04;;;;;;;5.10;4.28;;;;;;;2.35;72.33;98654.52;1773849;80;21508;-40
2022/02/03 07:54:32;;;;;;;6.35;4.85;;;;;;;2.30;72.09;98649.34;1774079;80;21053;-39
2022/02/03 07:57:00;;;;;;;5.17;4.12;;;;;;;2.21;72.15;98652.61;1773936;80;20969;-39
2022/02/03 07:59:27;;;;;;;5.00;4.50;;;;;;;2.10;72.31;98661.53;1774009;80;21558;-39
2022/02/03 08:01:54;;;;;;;5.62;4.72;;;;;;;2.04;72.51;98670.83;1762159;80;21121;-39
2022/02/03 08:04:26;;;;;;;6.67;5.28;;;;;;;1.96;72.61;98667.64;1747540;82;21014;-39
2022/02/03 08:06:50;;;;;;;6.37;5.58;;;;;;;1.92;72.65;98669.39;1748048;82;20943;-39
2022/02/03 08:09:25;;;;;;;6.03;5.35;;;;;;;1.90;72.55;98672.92;1769013;80;20977;-39
2022/02/03 08:11:48;;;;;;;6.50;5.58;;;;;;;1.90;72.72;98680.16;1775511;80;21002;-39
2022/02/03 08:14:20;;;;;;;6.42;5.45;;;;;;;1.90;73.06;98681.48;1772984;81;21168;-39
2022/02/03 08:19:22;;;;;;;6.90;5.87;;;;;;;1.88;73.24;98681.83;1742630;82;21021;-39
2022/02/03 08:21:52;;;;;;;7.40;5.83;;;;;;;1.90;73.46;98680.94;1778734;80;21467;-39
2022/02/03 08:24:31;;;;;;;8.53;6.50;;;;;;;1.96;73.43;98697.59;1778646;80;21521;-39
2022/02/03 08:32:27;;;;;;;7.03;5.92;;;;;;;1.90;73.12;98710.34;1659497;86;21550;-39
2022/02/03 08:37:30;;;;;;;8.43;7.28;;;;;;;1.90;72.58;98718.91;1753643;80;21629;-39
2022/02/03 08:40:08;;;;;;;;;;;;;;;1.90;72.05;98721.03;1753219;81;21879;-39
2022/02/03 08:42:20;;;;;;;8.85;6.65;;;;;;;1.89;71.70;98722.13;1748528;81;20466;-39
2022/02/03 08:44:47;;;;;;;11.05;7.80;;;;;;;1.77;71.61;98731.36;1751330;82;20942;-39
2022/02/03 08:47:14;;;;;;;10.05;7.95;;;;;;;1.76;71.75;98745.81;1751253;82;20973;-39
2022/02/03 08:49:45;;;;;;;8.78;7.05;;;;;;;1.77;71.82;98738.04;1751792;80;21036;-39
2022/02/03 08:52:17;;;;;;;8.30;6.83;;;;;;;1.81;71.57;98738.97;1742488;82;21128;-39
2022/02/03 08:54:47;;;;;;;9.93;7.67;;;;;;;1.84;71.23;98744.25;1741955;82;21040;-39
2022/02/03 08:57:18;;;;;;;10.40;7.08;;;;;;;1.80;71.25;98752.09;1741894;82;20968;-39
2022/02/03 09:00:03;;;;;;;10.88;8.38;;;;;;;1.77;71.26;98758.08;1741820;82;21027;-39
2022/02/03 09:35:27;;;;;;;12.98;10.05;;;;;;;1.44;70.17;98789.83;1751882;80;21011;-39
2022/02/03 09:37:58;;;;;;;14.35;9.15;;;;;;;1.43;70.04;98796.81;1751167;81;21495;-39
2022/02/03 09:59:05;;;;;;;12.43;9.00;;;;;;;1.11;70.48;98801.48;1782477;80;21137;-39
2022/02/03 10:01:41;;;;;;;15.20;9.73;;;;;;;1.14;70.63;98806.73;1780364;80;21520;-39
2022/02/03 10:04:18;;;;;;;13.70;9.65;;;;;;;1.15;70.70;98811.77;1778081;80;21017;-39
2022/02/03 10:06:33;;;;;;;15.15;9.83;;;;;;;1.17;70.23;98812.78;1770019;80;21025;-39
2022/02/03 10:09:00;;;;;;;13.88;9.98;;;;;;;1.16;70.44;98815.99;1746684;82;21578;-39
2022/02/03 10:11:28;;;;;;;13.10;8.88;;;;;;;1.16;70.71;98826.67;1746658;80;21901;-39
2022/02/03 10:14:01;;;;;;;12.20;10.08;;;;;;;1.16;71.16;98830.67;1773905;80;21557;-39
2022/02/03 10:16:33;;;;;;;14.43;10.85;;;;;;;1.13;71.36;98828.64;1760621;80;20981;-39
2022/02/03 10:19:15;;;;;;;16.02;11.18;;;;;;;1.15;71.26;98843.02;1758579;81;21671;-39
2022/02/03 10:21:42;;;;;;;13.50;10.72;;;;;;;1.16;71.18;98835.25;1758809;81;21061;-39
2022/02/03 10:24:15;;;;;;;15.47;10.63;;;;;;;1.17;71.36;98831.47;1707918;82;21801;-39
2022/02/03 10:26:46;;;;;;;13.50;10.23;;;;;;;1.17;71.26;98838.93;1707259;83;21576;-39
2022/02/03 10:29:20;;;;;;;13.40;10.85;;;;;;;1.17;71.36;98844.27;1743032;82;21174;-39
2022/02/03 10:31:47;;;;;;;13.70;10.82;;;;;;;1.18;71.24;98844.52;1743324;82;21512;-39
2022/02/03 10:34:21;;;;;;;18.10;11.95;;;;;;;1.18;71.09;98849.85;1741420;81;21528;-39
2022/02/03 10:37:02;;;;;;;18.80;11.65;;;;;;;1.20;71.29;98847.67;1772037;80;21151;-39
2022/02/03 10:42:49;;;;;;;16.32;11.75;;;;;;;1.25;71.95;98846.73;1772363;81;20978;-39
2022/02/03 10:53:26;;;;;;;14.83;11.38;;;;;;;1.24;71.72;98859.84;1773876;80;20996;-39
2022/02/03 11:09:14;;;;;;;17.37;11.83;;;;;;;1.01;69.61;98881.84;1772961;80;20984;-39
2022/02/03 11:11:43;;;;;;;15.43;10.72;;;;;;;0.89;69.37;98888.28;1781488;80;20996;-39
2022/02/03 11:14:09;;;;;;;16.25;11.30;;;;;;;0.82;69.88;98889.29;1756540;81;21079;-39
2022/02/03 11:16:40;;;;;;;14.63;10.85;;;;;;;0.79;69.63;98888.55;1756669;81;21360;-39
2022/02/03 11:19:12;;;;;;;15.13;11.15;;;;;;;0.82;69.81;98891.95;1756710;81;21068;-39
2022/02/03 11:21:38;;;;;;;14.45;10.63;;;;;;;0.86;70.13;98896.37;1756554;81;20940;-39
2022/02/03 11:24:12;;;;;;;14.50;9.98;;;;;;;0.90;70.08;98895.20;1756525;81;21031;-39
2022/02/03 11:33:05;;;;;;;16.00;11.35;;;;;;;1.03;69.40;98895.65;1756680;81;20960;-39
2022/02/03 11:40:33;;;;;;;15.50;11.15;;;;;;;1.08;67.42;98886.72;1754112;81;21084;-39
2022/02/03 11:46:34;;;;;;;17.23;12.73;;;;;;;1.05;67.74;98886.80;1756520;81;20998;-39
2022/02/03 11:48:38;;;;;;;16.27;11.28;;;;;;;1.03;67.45;98891.64;1732051;81;21050;-39
2022/02/03 12:01:54;;;;;;;12.18;9.68;;;;;;;1.12;67.02;98919.70;1756768;80;21585;-39
2022/02/03 12:04:40;;;;;;;13.93;10.30;;;;;;;1.14;66.90;98924.98;1750876;81;21005;-39
2022/02/03 12:17:54;;;;;;;11.00;7.78;;;;;;;1.28;65.58;98947.58;1743743;82;21012;-39
2022/02/03 12:20:27;;;;;;;13.80;9.78;;;;;;;1.31;65.54;98953.08;1741194;82;21057;-39
2022/02/03 12:23:03;;;;;;;14.58;9.98;;;;;;;1.41;65.49;98953.36;1752115;80;21243;-39
2022/02/03 12:25:54;;;;;;;12.45;9.60;;;;;;;1.50;65.40;98958.75;1772960;80;21606;-39
2022/02/03 12:31:14;;;;;;;13.78;10.10;;;;;;;1.38;64.35;98969.22;1774083;80;21076;-39
2022/02/03 12:38:36;;;;;;;15.28;10.55;;;;;;;1.20;65.12;98973.70;1743209;82;21004;-39
2022/02/03 12:41:11;;;;;;;14.95;10.65;;;;;;;1.17;65.54;98977.76;1743030;82;20994;-39
2022/02/03 12:43:40;;;;;;;14.07;10.38;;;;;;;1.16;65.95;98980.75;1743420;80;21064;-39
2022/02/03 12:46:06;;;;;;;14.87;10.23;;;;;;;1.12;65.96;98985.11;1742940;82;21330;-39
2022/02/03 12:48:35;;;;;;;14.70;10.85;;;;;;;1.08;65.67;98986.81;1722111;82;21855;-39
2022/02/03 12:51:04;;;;;;;14.53;10.40;;;;;;;1.00;65.86;98999.58;1743401;82;20913;-39
2022/02/03 12:53:38;;;;;;;15.98;10.38;;;;;;;0.86;65.65;99004.45;1743610;82;21021;-39
2022/02/03 12:56:06;;;;;;;14.30;10.23;;;;;;;0.77;65.75;99010.81;1743060;82;21078;-39
2022/02/03 12:58:39;;;;;;;14.35;9.53;;;;;;;0.67;65.56;99016.39;1743375;82;21021;-39
2022/02/03 13:01:11;;;;;;;15.23;10.65;;;;;;;0.56;65.51;99013.70;1742886;82;21149;-39
2022/02/03 13:03:38;;;;;;;15.68;11.00;;;;;;;0.52;65.92;99020.73;1742258;82;20949;-39
2022/02/03 13:06:06;;;;;;;15.10;10.20;;;;;;;0.45;66.21;99033.14;1742468;82;20899;-39
2022/02/03 13:08:45;;;;;;;15.48;10.00;;;;;;;0.42;66.59;99021.20;1750464;80;21081;-39
2022/02/03 13:13:58;;;;;;;16.32;10.70;;;;;;;0.34;66.23;99031.77;1697047;83;21083;-39
2022/02/03 13:16:12;;;;;;;14.93;10.23;;;;;;;0.32;66.34;99041.97;1757794;80;21551;-39
2022/02/03 13:18:47;;;;;;;15.10;10.72;;;;;;;0.30;66.27;99048.92;1773765;80;21487;-39
2022/02/03 13:21:27;;;;;;;13.88;10.13;;;;;;;0.30;65.94;99049.47;1773967;80;21073;-39
2022/02/03 13:23:50;;;;;;;17.20;10.93;;;;;;;0.27;66.23;99055.41;1768766;80;21077;-39
2022/02/03 13:26:15;;;;;;;14.07;9.45;;;;;;;0.29;66.17;99070.57;1767559;81;21813;-39
2022/02/03 13:29:02;;;;;;;15.40;10.23;;;;;;;0.30;66.09;99067.59;1701240;84;21796;-39
2022/02/03 13:31:34;;;;;;;15.05;10.82;;;;;;;0.31;66.08;99069.17;1766988;81;20942;-39
2022/02/03 13:34:06;;;;;;;17.25;11.22;;;;;;;0.31;66.20;99073.17;1727478;81;21580;-39
2022/02/03 13:36:41;;;;;;;16.60;10.40;;;;;;;0.33;66.41;99071.55;1709238;83;21000;-39
2022/02/03 13:39:14;;;;;;;17.32;11.80;;;;;;;0.36;66.31;99076.27;1752336;81;21147;-40
2022/02/03 13:41:44;;;;;;;17.80;12.53;;;;;;;0.34;66.01;99076.56;1758088;81;21045;-39
2022/02/03 13:44:09;;;;;;;22.55;13.18;;;;;;;0.27;66.31;99081.52;1758116;81;20997;-39
2022/02/03 13:46:39;;;;;;;21.42;12.85;;;;;;;0.17;66.70;99079.06;1758777;81;21056;-39
2022/02/03 13:49:15;;;;;;;18.40;11.25;;;;;;;0.09;67.10;99077.64;1758702;81;21053;-39
2022/02/03 13:51:43;;;;;;;24.12;13.90;;;;;;;-0.03;67.49;99082.92;1758671;81;21084;-39
2022/02/03 13:54:58;;;;;;;20.97;13.88;;;;;;;-0.15;67.90;99083.17;1758691;81;21032;-39
2022/02/03 14:12:06;;;;;;;28.12;15.55;;;;;;;-0.66;70.05;99104.04;1721553;83;21090;-39
2022/02/03 14:21:28;;;;;;;21.00;14.05;;;;;;;-0.69;70.27;99109.95;1736314;82;21036;-39
2022/02/03 14:29:16;;;;;;;21.15;12.53;;;;;;;-0.72;69.49;99133.14;1767033;81;21038;-39
2022/02/03 14:31:41;;;;;;;21.07;13.03;;;;;;;-0.79;69.66;99130.08;1717604;83;21160;-38
2022/02/03 14:34:16;;;;;;;20.77;11.60;;;;;;;-0.84;69.47;99140.80;1766853;81;21534;-39
2022/02/03 14:36:42;;;;;;;19.32;12.20;;;;;;;-0.89;69.59;99136.35;1766248;81;20932;-38
2022/02/03 14:39:20;;;;;;;17.37;11.25;;;;;;;-0.92;69.41;99145.46;1766840;81;21070;-39
2022/02/03 14:41:47;;;;;;;13.65;9.78;;;;;;;-0.97;69.40;99149.52;1766131;81;21066;-39
2022/02/03 14:44:17;;;;;;;17.57;10.45;;;;;;;-1.03;68.98;99140.03;1766793;81;21112;-38
2022/02/03 14:46:44;;;;;;;16.17;10.13;;;;;;;-1.07;68.86;99144.34;1767119;81;20924;-39
2022/02/03 14:49:10;;;;;;;19.05;10.43;;;;;;;-1.11;68.87;99150.77;1767080;81;20967;-39
2022/02/03 14:51:45;;;;;;;13.80;8.90;;;;;;;-1.09;68.75;99160.59;1766792;81;21011;-39
2022/02/03 14:58:01;;;;;;;12.43;8.48;;;;;;;-1.09;68.18;99163.78;1766591;81;21532;-38
2022/02/03 14:59:23;;;;;;;11.10;8.10;;;;;;;-1.15;67.45;99167.59;1766922;80;21021;-39
2022/02/03 15:01:49;;;;;;;9.05;7.17;;;;;;;-1.17;67.23;99176.41;1745599;81;21042;-39
2022/02/03 15:04:25;;;;;;;9.80;6.65;;;;;;;-1.23;66.03;99176.22;1707172;83;21657;-39
2022/02/03 15:06:55;;;;;;;8.38;6.08;;;;;;;-1.29;66.28;99171.50;1697145;83;21068;-39
2022/02/03 15:09:18;;;;;;;7.75;4.92;;;;;;;-1.36;65.89;99182.50;1699898;84;22041;-38
2022/02/03 15:11:57;;;;;;;8.13;5.65;;;;;;;-1.39;65.97;99183.05;1703289;84;21832;-39
2022/02/03 15:14:12;;;;;;;9.70;5.92;;;;;;;-1.38;66.09;99192.63;1696988;84;20989;-39
2022/02/03 15:16:39;;;;;;;8.53;6.30;;;;;;;-1.40;65.83;99189.98;1697649;83;21069;-39
2022/02/03 15:19:06;;;;;;;8.63;6.17;;;;;;;-1.42;65.68;99192.94;1697266;84;21052;-39
2022/02/03 15:21:32;;;;;;;7.33;5.03;;;;;;;-1.44;65.70;99199.06;1697195;84;21163;-39
2022/02/03 15:23:59;;;;;;;8.18;5.78;;;;;;;-1.45;65.45;99190.83;1698413;84;20953;-38
2022/02/03 15:26:26;;;;;;;9.03;5.92;;;;;;;-1.46;65.65;99194.59;1698630;84;20965;-39
2022/02/03 15:28:53;;;;;;;9.50;6.20;;;;;;;-1.43;65.53;99201.19;1698766;84;21092;-39
2022/02/03 15:31:26;;;;;;;14.98;5.87;;;;;;;-1.43;65.51;99204.65;1698827;84;21543;-39
2022/02/03 15:33:57;;;;;;;7.40;5.17;;;;;;;-1.44;65.23;99208.37;1699058;83;21120;-38
2022/02/03 15:36:18;;;;;;;8.05;5.40;;;;;;;-1.42;65.19;99207.56;1698033;84;21054;-38
2022/02/03 15:38:48;;;;;;;8.30;4.90;;;;;;;-1.42;64.69;99214.75;1698558;84;20977;-39
2022/02/03 15:41:22;;;;;;;7.83;4.90;;;;;;;-1.46;64.63;99221.17;1698788;84;21575;-38
2022/02/03 15:43:43;;;;;;;10.15;6.80;;;;;;;-1.51;64.83;99226.55;1694101;84;21496;-39
2022/02/03 15:46:12;;;;;;;11.60;6.95;;;;;;;-1.53;64.98;99231.34;1699118;84;21879;-39
2022/02/03 15:48:45;;;;;;;8.95;5.70;;;;;;;-1.55;64.75;99234.05;1698674;84;21043;-38
2022/02/03 15:51:19;;;;;;;7.97;6.00;;;;;;;-1.58;64.40;99244.69;1698037;84;20910;-38
2022/02/03 16:13:21;;;;;;;9.20;6.03;;;;;;;-2.04;64.10;99259.50;1743370;82;21024;-39
2022/02/03 16:17:13;;;;;;;8.23;5.92;;;;;;;-2.07;64.77;99266.16;1743358;82;20965;-39
2022/02/03 16:20:01;;;;;;;9.95;6.05;;;;;;;-2.11;64.82;99263.80;1743350;82;21519;-39
2022/02/03 16:22:42;;;;;;;8.63;5.70;;;;;;;-2.15;64.75;99271.28;1740979;82;21057;-39
2022/02/03 16:25:03;;;;;;;9.25;5.92;;;;;;;-2.14;65.02;99272.34;1736207;82;21149;-39
2022/02/03 16:54:34;;;;;;;6.45;4.20;;;;;;;-2.23;61.79;99273.44;1743472;82;21013;-39
2022/02/03 16:57:08;;;;;;;6.83;4.58;;;;;;;-2.23;61.34;99276.09;1743106;82;21005;-39
2022/02/03 16:59:32;;;;;;;7.08;4.45;;;;;;;-2.20;61.38;99277.42;1746290;82;20970;-39
2022/02/03 17:01:58;;;;;;;8.03;4.00;;;;;;;-2.19;61.29;99293.63;1738257;82;21053;-39
2022/02/03 17:04:24;;;;;;;6.67;3.95;;;;;;;-2.24;60.52;99287.81;1743637;82;21100;-39
2022/02/03 17:06:51;;;;;;;6.72;3.87;;;;;;;-2.29;60.66;99287.85;1743074;82;21612;-39
2022/02/03 17:09:18;;;;;;;5.87;3.70;;;;;;;-2.33;60.37;99292.66;1743169;82;21035;-39
2022/02/03 17:11:45;;;;;;;6.78;3.83;;;;;;;-2.40;60.53;99297.48;1743310;82;20941;-39
2022/02/03 17:14:11;;;;;;;6.45;3.80;;;;;;;-2.43;60.58;99291.41;1707617;84;21061;-39
2022/02/03 17:16:38;;;;;;;5.80;3.92;;;;;;;-2.46;60.22;99294.05;1743171;82;21091;-39
2022/02/03 17:19:05;;;;;;;5.58;3.55;;;;;;;-2.48;60.38;99303.38;1707389;84;21342;-39
2022/02/03 17:21:33;;;;;;;5.03;3.65;;;;;;;-2.47;60.38;99303.08;1743364;82;21017;-39
2022/02/03 17:24:01;;;;;;;6.45;3.83;;;;;;;-2.46;60.60;99307.33;1707692;84;21037;-39
2022/02/03 17:26:39;;;;;;;5.75;3.85;;;;;;;-2.45;60.24;99306.27;1743162;82;21033;-39
2022/02/03 17:29:14;;;;;;;5.97;3.92;;;;;;;-2.45;60.64;99314.23;1706776;84;21231;-39
2022/02/03 17:52:14;;;;;;;6.03;3.22;;;;;;;-2.30;59.99;99325.29;1735767;82;21071;-39
2022/02/03 18:04:59;;;;;;;5.42;3.45;;;;;;;-2.21;59.62;99307.16;1707507;84;20989;-39
2022/02/03 18:07:15;;;;;;;3.52;2.58;;;;;;;-2.19;59.52;99310.88;1742973;82;21448;-39
2022/02/03 18:09:18;;;;;;;4.80;2.90;;;;;;;-2.16;59.39;99312.17;1705319;83;21980;-39
2022/02/03 18:53:36;;;;;;;5.35;3.00;;;;;;;-2.14;58.54;99329.44;1788205;80;21467;-37
2022/02/03 18:58:34;;;;;;;4.72;2.83;;;;;;;-2.12;58.25;99329.94;1788251;80;21063;-37
2022/02/03 19:09:44;;;;;;;3.98;2.80;;;;;;;-2.05;58.11;99351.67;1775429;80;20976;-37
2022/02/03 19:14:57;;;;;;;4.35;3.15;;;;;;;-1.98;58.72;99350.81;1757005;81;21561;-37
2022/02/03 20:08:37;;;;;;;5.70;3.60;;;;;;;-2.23;57.29;99357.09;1761895;81;20930;-37
2022/02/03 20:10:58;;;;;;;9.78;4.30;;;;;;;-2.28;57.53;99359.80;1776422;80;21025;-37
2022/02/03 20:13:25;;;;;;;6.42;4.12;;;;;;;-2.29;57.62;99351.58;1781354;80;21216;-37
2022/02/03 20:15:53;;;;;;;5.50;3.95;;;;;;;-2.27;57.56;99348.09;1781315;80;21012;-37
2022/02/03 20:18:20;;;;;;;5.97;4.20;;;;;;;-2.26;57.69;99352.87;1781668;80;21012;-37
2022/02/03 20:20:47;;;;;;;5.97;3.85;;;;;;;-2.28;57.66;99346.53;1775118;80;21013;-38
2022/02/03 20:23:17;;;;;;;9.53;4.33;;;;;;;-2.27;57.92;99354.73;1763510;81;21550;-37
2022/02/03 20:25:51;;;;;;;5.75;4.00;;;;;;;-2.29;57.93;99348.92;1763206;81;21113;-37
2022/02/03 20:28:15;;;;;;;7.60;4.45;;;;;;;-2.31;58.16;99342.28;1762730;81;20938;-37
2022/02/03 20:30:41;;;;;;;6.85;3.85;;;;;;;-2.30;58.35;99347.33;1763083;81;20989;-38
2022/02/03 20:33:08;;;;;;;6.87;4.00;;;;;;;-2.24;58.72;99349.42;1765361;81;21057;-37
2022/02/03 20:35:36;;;;;;;6.95;3.95;;;;;;;-2.17;58.61;99345.91;1772017;81;21033;-38
2022/02/03 20:38:03;;;;;;;7.92;4.40;;;;;;;-2.11;58.29;99345.34;1772221;81;21767;-37
2022/02/03 20:40:31;;;;;;;6.47;4.05;;;;;;;-2.10;58.43;99345.07;1771971;81;21009;-37
2022/02/03 20:42:58;;;;;;;5.58;3.75;;;;;;;-2.08;58.21;99328.87;1772295;81;21009;-37
2022/02/03 20:45:24;;;;;;;7.90;4.50;;;;;;;-2.07;58.50;99335.74;1766882;81;21018;-37
2022/02/03 20:47:51;;;;;;;7.20;4.35;;;;;;;-2.03;58.76;99328.83;1772101;81;21479;-37
2022/02/03 20:50:20;;;;;;;6.97;4.15;;;;;;;-1.96;58.58;99334.60;1772055;81;21276;-37
2022/02/03 20:52:47;;;;;;;6.08;3.70;;;;;;;-1.86;58.71;99338.52;1772146;80;21028;-37
2022/02/03 20:55:13;;;;;;;7.17;4.42;;;;;;;-1.78;58.43;99339.23;1771965;81;21056;-38
2022/02/03 20:57:40;;;;;;;6.87;4.35;;;;;;;-1.71;58.17;99330.95;1772279;81;21522;-37
2022/02/03 21:00:26;;;;;;;6.60;3.98;;;;;;;-1.67;57.44;99339.94;1768041;81;21058;-38
2022/02/03 21:02:57;;;;;;;7.22;3.87;;;;;;;-1.65;57.46;99335.95;1763033;81;21852;-37
2022/02/03 21:05:19;;;;;;;4.90;3.45;;;;;;;-1.64;57.21;99334.05;1761949;81;20939;-37
2022/02/03 21:07:48;;;;;;;5.87;3.50;;;;;;;-1.63;56.97;99338.30;1760832;81;21022;-38
2022/02/03 21:10:21;;;;;;;6.85;3.22;;;;;;;-1.64;56.46;99330.86;1755914;80;21008;-37
2022/02/03 21:12:47;;;;;;;3.65;3.12;;;;;;;-1.69;56.65;99341.54;1751128;81;21095;-38
2022/02/03 21:15:22;;;;;;;5.08;3.27;;;;;;;-1.75;55.65;99338.69;1752282;81;21167;-37
2022/02/03 21:17:44;;;;;;;4.75;3.30;;;;;;;-1.87;55.29;99338.25;1748158;81;20934;-38
2022/02/03 21:20:14;;;;;;;4.53;3.12;;;;;;;-1.97;55.53;99337.00;1748682;82;21028;-38
2022/02/03 21:22:40;;;;;;;5.35;3.50;;;;;;;-2.02;55.73;99342.34;1755903;80;20937;-37
2022/02/03 21:25:35;;;;;;;4.10;2.90;;;;;;;-2.05;55.83;99337.06;1748674;82;21099;-38
2022/02/03 21:28:13;;;;;;;5.17;3.33;;;;;;;-2.06;55.71;99336.00;1748549;82;21159;-37
2022/02/03 21:30:36;;;;;;;3.95;3.00;;;;;;;-2.10;55.71;99336.31;1757455;80;20929;-37
2022/02/03 21:33:03;;;;;;;5.53;3.20;;;;;;;-2.12;55.42;99330.47;1779558;80;21461;-37
2022/02/03 21:35:30;;;;;;;4.67;3.35;;;;;;;-2.15;55.50;99341.66;1779646;80;21036;-37
2022/02/03 21:37:57;;;;;;;4.92;3.40;;;;;;;-2.15;55.85;99335.02;1779635;80;21076;-37
2022/02/03 21:40:23;;;;;;;5.22;3.22;;;;;;;-2.18;55.83;99338.23;1779623;80;21806;-37
2022/02/03 21:42:50;;;;;;;4.35;3.15;;;;;;;-2.18;56.31;99336.38;1779635;80;21627;-37
2022/02/03 21:45:18;;;;;;;4.83;3.47;;;;;;;-2.13;56.04;99342.18;1779665;80;21029;-37
2022/02/03 21:47:46;;;;;;;5.60;3.58;;;;;;;-2.10;56.34;99343.74;1779605;80;20949;-37